Time;durP1;ratioP1;P1;durP2;ratioP2;P2;SDS_P1;SDS_P2;PMS_P1;PMS_P2;Temp;Humidity;BMP_temperature;BMP_pressure;BME280_temperature;BME280_humidity;BME280_pressure;Samples;Min_cycle;Max_cycle;Signal;HPM_P1;HPM_P2
2021/11/21 00:01:13;;;;;;;10.57;4.83;;;22.30;54.30;;;;;;5203229;28;20049;-74
2021/11/21 00:03:46;;;;;;;35.95;4.70;;;22.20;54.30;;;;;;5199036;28;20329;-73
2021/11/21 00:06:18;;;;;;;9.02;3.75;;;22.20;54.30;;;;;;5201642;28;20045;-75
2021/11/21 00:08:52;;;;;;;8.00;3.50;;;22.20;54.30;;;;;;5189131;28;20064;-75
2021/11/21 00:11:25;;;;;;;14.35;4.15;;;22.20;54.20;;;;;;5196173;28;20291;-72
2021/11/21 00:13:58;;;;;;;8.60;3.58;;;22.20;54.10;;;;;;5172291;28;20060;-75
2021/11/21 00:16:30;;;;;;;9.20;3.92;;;22.20;54.10;;;;;;5169636;28;20037;-74
2021/11/21 00:19:03;;;;;;;6.32;3.03;;;22.20;54.00;;;;;;5195988;28;20440;-72
2021/11/21 00:21:36;;;;;;;9.53;3.50;;;22.20;54.00;;;;;;5200531;28;20049;-74
2021/11/21 00:24:08;;;;;;;5.07;3.38;;;22.20;53.90;;;;;;5198355;28;20044;-72
2021/11/21 00:26:41;;;;;;;7.85;3.35;;;22.20;53.90;;;;;;5181051;28;20053;-72
2021/11/21 00:29:14;;;;;;;8.93;3.67;;;22.20;53.90;;;;;;5194710;28;20229;-72
2021/11/21 00:31:47;;;;;;;6.25;3.15;;;22.20;53.80;;;;;;5199832;28;20417;-75
2021/11/21 00:34:19;;;;;;;7.13;3.30;;;22.20;53.70;;;;;;5178044;28;20060;-73
2021/11/21 00:36:51;;;;;;;8.98;2.92;;;22.20;53.70;;;;;;5196541;28;20060;-73
2021/11/21 00:39:24;;;;;;;5.15;2.97;;;22.20;53.60;;;;;;5201767;28;20049;-75
2021/11/21 00:41:56;;;;;;;6.35;2.80;;;22.20;53.60;;;;;;5193342;28;22226;-75
2021/11/21 00:44:29;;;;;;;6.43;3.27;;;22.20;53.60;;;;;;5191769;28;20072;-75
2021/11/21 00:47:02;;;;;;;5.18;3.22;;;22.20;53.50;;;;;;5183402;28;20315;-75
2021/11/21 00:49:34;;;;;;;4.65;3.28;;;22.20;54.20;;;;;;5198985;28;20071;-75
2021/11/21 00:52:09;;;;;;;5.78;2.90;;;22.20;53.40;;;;;;5183420;28;20063;-75
2021/11/21 00:57:20;;;;;;;3.63;2.70;;;22.20;53.40;;;;;;5196184;28;20055;-75
2021/11/21 00:59:52;;;;;;;5.15;2.53;;;22.20;53.40;;;;;;5180909;28;20057;-75
2021/11/21 01:02:25;;;;;;;3.72;2.60;;;22.20;53.30;;;;;;5188937;28;20491;-75
2021/11/21 01:05:00;;;;;;;4.00;2.95;;;22.20;53.30;;;;;;5177603;28;20049;-76
2021/11/21 01:07:37;;;;;;;5.60;3.17;;;22.20;53.30;;;;;;5196372;28;20488;-74
2021/11/21 01:10:14;;;;;;;5.43;2.63;;;22.10;53.30;;;;;;5203378;28;20515;-76
2021/11/21 01:12:48;;;;;;;5.95;3.17;;;22.10;53.10;;;;;;5201941;28;20049;-74
2021/11/21 01:15:23;;;;;;;3.92;2.50;;;22.20;53.10;;;;;;5200583;28;20292;-75
2021/11/21 01:17:57;;;;;;;5.18;2.30;;;22.10;53.00;;;;;;5187550;28;20056;-72
2021/11/21 01:20:32;;;;;;;3.75;2.65;;;22.10;53.10;;;;;;5187979;28;20037;-72
2021/11/21 01:23:05;;;;;;;6.03;3.65;;;22.10;53.10;;;;;;5185935;28;20045;-74
2021/11/21 01:25:38;;;;;;;3.90;2.30;;;22.10;53.00;;;;;;5205550;28;20069;-72
2021/11/21 01:28:11;;;;;;;6.03;2.58;;;22.10;53.00;;;;;;5175162;28;20061;-76
2021/11/21 01:30:44;;;;;;;3.58;2.35;;;22.10;52.90;;;;;;5189038;28;20072;-76
2021/11/21 01:33:17;;;;;;;5.55;2.20;;;22.10;53.00;;;;;;5201284;28;20060;-75
2021/11/21 01:35:49;;;;;;;3.58;2.28;;;22.10;53.00;;;;;;5190728;28;20052;-75
2021/11/21 01:38:22;;;;;;;6.27;2.67;;;22.10;53.00;;;;;;5201798;28;20041;-75
2021/11/21 01:40:54;;;;;;;4.03;2.30;;;22.10;52.90;;;;;;5177609;28;20327;-72
2021/11/21 01:43:27;;;;;;;4.95;2.33;;;22.10;52.90;;;;;;5204600;28;20041;-72
2021/11/21 01:45:59;;;;;;;2.92;2.13;;;22.10;52.80;;;;;;5189957;28;20053;-74
2021/11/21 01:48:32;;;;;;;2.90;1.83;;;22.10;52.80;;;;;;5179201;28;20050;-75
2021/11/21 01:51:09;;;;;;;6.03;2.00;;;22.10;52.70;;;;;;5194968;28;20084;-73
2021/11/21 01:53:42;;;;;;;8.73;2.63;;;22.10;52.80;;;;;;5195971;28;20060;-75
2021/11/21 01:56:14;;;;;;;2.42;2.20;;;22.10;52.70;;;;;;5191393;28;20046;-75
2021/11/21 01:58:47;;;;;;;3.50;2.00;;;22.10;52.50;;;;;;5190111;28;20400;-76
2021/11/21 02:01:19;;;;;;;3.78;2.17;;;22.10;52.60;;;;;;5159121;28;20053;-76
2021/11/21 02:03:52;;;;;;;4.55;2.30;;;22.10;52.60;;;;;;5197058;28;20045;-75
2021/11/21 02:06:25;;;;;;;6.37;2.33;;;22.10;52.60;;;;;;5192894;28;20839;-76
2021/11/21 02:08:58;;;;;;;2.93;1.73;;;22.10;52.50;;;;;;5177012;28;20425;-75
2021/11/21 02:11:30;;;;;;;2.85;2.10;;;22.10;52.60;;;;;;5188357;28;20312;-75
2021/11/21 02:14:03;;;;;;;2.17;1.92;;;22.10;52.50;;;;;;5192263;28;20049;-75
2021/11/21 02:16:36;;;;;;;2.27;2.07;;;22.10;52.50;;;;;;5195507;28;20051;-75
2021/11/21 02:19:08;;;;;;;3.35;2.13;;;22.00;52.40;;;;;;5194031;28;20056;-73
2021/11/21 02:21:41;;;;;;;3.63;1.77;;;22.10;52.30;;;;;;5191568;28;20899;-75
2021/11/21 02:24:13;;;;;;;2.90;2.20;;;22.10;52.20;;;;;;5190293;28;20045;-75
2021/11/21 02:26:46;;;;;;;7.10;2.08;;;22.10;52.20;;;;;;5192044;28;20048;-75
2021/11/21 02:29:18;;;;;;;5.68;2.15;;;22.10;52.30;;;;;;5203432;28;20049;-75
2021/11/21 02:31:51;;;;;;;8.02;2.67;;;22.10;52.30;;;;;;5188441;28;20045;-74
2021/11/21 02:34:23;;;;;;;4.77;2.10;;;22.10;52.30;;;;;;5185624;28;20414;-75
2021/11/21 02:36:56;;;;;;;6.50;2.33;;;22.10;52.40;;;;;;5193807;28;20045;-75
2021/11/21 02:39:29;;;;;;;9.63;2.50;;;22.10;52.30;;;;;;5181518;28;20053;-75
2021/11/21 02:42:01;;;;;;;8.27;2.30;;;22.10;52.20;;;;;;5179307;28;20041;-73
2021/11/21 02:44:34;;;;;;;3.38;1.95;;;22.00;52.10;;;;;;5170495;28;20053;-75
2021/11/21 02:47:07;;;;;;;2.97;2.00;;;22.10;52.10;;;;;;5189389;28;20041;-75
2021/11/21 02:49:39;;;;;;;4.32;2.03;;;22.00;52.10;;;;;;5175340;28;20063;-74
2021/11/21 02:52:12;;;;;;;3.17;1.80;;;22.00;52.00;;;;;;5177066;28;20653;-71
2021/11/21 02:54:52;;;;;;;2.92;1.90;;;22.00;51.80;;;;;;5183332;28;20060;-75
2021/11/21 02:57:26;;;;;;;2.85;1.90;;;22.00;51.80;;;;;;5163874;28;20045;-74
2021/11/21 03:00:00;;;;;;;;;;;22.00;51.70;;;;;;5193748;28;20422;-75
2021/11/21 03:02:32;;;;;;;2.65;1.80;;;21.90;51.40;;;;;;5180189;28;19943;-72
2021/11/21 03:05:05;;;;;;;4.23;1.80;;;22.00;51.70;;;;;;5185424;28;21390;-73
2021/11/21 03:07:38;;;;;;;4.03;1.88;;;22.00;51.60;;;;;;5184891;28;20913;-73
2021/11/21 03:10:14;;;;;;;3.88;1.75;;;22.00;51.50;;;;;;5166868;28;20051;-73
2021/11/21 03:12:54;;;;;;;3.33;1.98;;;22.00;51.50;;;;;;5182212;28;20056;-74
2021/11/21 03:15:28;;;;;;;3.03;1.95;;;22.00;52.00;;;;;;5167014;28;20516;-74
2021/11/21 03:18:02;;;;;;;2.72;1.92;;;22.00;51.40;;;;;;5217649;28;20240;-73
2021/11/21 03:20:36;;;;;;;2.97;1.65;;;22.00;51.20;;;;;;5213844;28;20056;-76
2021/11/21 03:23:08;;;;;;;3.65;1.60;;;22.00;51.20;;;;;;5209916;28;20701;-75
2021/11/21 03:25:41;;;;;;;2.65;1.30;;;22.00;51.20;;;;;;5210799;28;20052;-74
2021/11/21 03:28:13;;;;;;;2.15;1.50;;;22.00;51.30;;;;;;5210074;28;20259;-75
2021/11/21 03:30:46;;;;;;;3.75;1.83;;;22.00;51.20;;;;;;5199554;28;20049;-75
2021/11/21 03:33:18;;;;;;;5.22;1.70;;;22.00;51.10;;;;;;5238226;28;20052;-73
2021/11/21 03:35:50;;;;;;;3.72;1.35;;;22.00;51.20;;;;;;5231038;28;20391;-74
2021/11/21 03:38:23;;;;;;;2.10;1.80;;;22.00;51.20;;;;;;5232410;28;20302;-74
2021/11/21 03:40:56;;;;;;;2.00;1.80;;;22.00;51.20;;;;;;5234238;28;20053;-73
2021/11/21 03:43:28;;;;;;;2.37;1.43;;;22.00;51.20;;;;;;5234684;28;20044;-74
2021/11/21 03:46:01;;;;;;;1.77;1.50;;;22.00;51.30;;;;;;5221258;28;21097;-74
2021/11/21 03:48:33;;;;;;;5.32;1.63;;;22.00;51.20;;;;;;5224179;28;20098;-74
2021/11/21 03:51:06;;;;;;;1.65;1.40;;;22.00;51.20;;;;;;5239444;28;20390;-74
2021/11/21 03:53:39;;;;;;;2.33;1.30;;;22.00;51.20;;;;;;5241972;28;20048;-74
2021/11/21 03:56:11;;;;;;;1.83;1.50;;;22.00;51.20;;;;;;5233718;28;20037;-74
2021/11/21 03:58:43;;;;;;;2.47;1.40;;;22.00;51.30;;;;;;5241194;28;20386;-75
2021/11/21 04:01:16;;;;;;;2.40;1.50;;;22.00;51.30;;;;;;5244569;28;20052;-74
2021/11/21 04:03:49;;;;;;;1.65;1.55;;;22.00;51.20;;;;;;5216006;28;20049;-74
2021/11/21 04:06:21;;;;;;;1.80;1.60;;;22.00;51.20;;;;;;5222490;28;20477;-73
2021/11/21 04:08:54;;;;;;;3.05;1.45;;;22.00;51.30;;;;;;5231784;28;20045;-72
2021/11/21 04:11:26;;;;;;;2.15;1.70;;;22.00;51.30;;;;;;5233146;28;20041;-71
2021/11/21 04:13:59;;;;;;;1.60;1.37;;;22.00;51.20;;;;;;5234280;28;20404;-73
2021/11/21 04:16:32;;;;;;;1.50;1.40;;;22.00;51.20;;;;;;5234529;28;20072;-73
2021/11/21 04:19:06;;;;;;;2.50;1.50;;;22.00;51.20;;;;;;5233826;28;20049;-73
2021/11/21 04:21:39;;;;;;;1.83;1.35;;;22.00;51.30;;;;;;5234066;28;20512;-73
2021/11/21 04:24:13;;;;;;;2.30;1.20;;;22.00;51.20;;;;;;5235165;28;20365;-73
2021/11/21 04:26:46;;;;;;;3.03;1.30;;;22.00;51.20;;;;;;5236687;28;20075;-73
2021/11/21 04:29:20;;;;;;;2.40;1.42;;;22.00;51.10;;;;;;5218377;28;20052;-72
2021/11/21 04:31:54;;;;;;;1.83;1.38;;;22.00;51.10;;;;;;5236849;28;20060;-74
2021/11/21 04:34:27;;;;;;;3.90;1.35;;;22.00;51.10;;;;;;5243152;28;20501;-74
2021/11/21 04:37:00;;;;;;;1.33;1.17;;;22.10;51.10;;;;;;5230766;28;20060;-73
2021/11/21 04:39:32;;;;;;;4.22;1.40;;;22.00;51.80;;;;;;5218179;28;20048;-73
2021/11/21 04:42:04;;;;;;;1.40;1.15;;;22.10;51.20;;;;;;5230450;28;20486;-73
2021/11/21 04:44:38;;;;;;;1.30;1.20;;;22.00;51.10;;;;;;5232431;28;20048;-73
2021/11/21 04:47:11;;;;;;;1.42;1.20;;;22.00;51.10;;;;;;5236903;28;20053;-74
2021/11/21 04:49:44;;;;;;;3.10;1.25;;;22.00;51.00;;;;;;5214196;28;20075;-72
2021/11/21 04:52:16;;;;;;;1.85;1.40;;;22.00;51.10;;;;;;5233768;28;20377;-73
2021/11/21 04:54:50;;;;;;;1.50;1.40;;;22.10;51.10;;;;;;5240674;28;20079;-72
2021/11/21 04:57:23;;;;;;;1.55;1.20;;;22.00;51.00;;;;;;5244250;28;20060;-72
2021/11/21 04:59:55;;;;;;;2.25;1.88;;;22.00;51.00;;;;;;5233457;28;20045;-72
2021/11/21 05:02:28;;;;;;;1.23;1.13;;;22.10;51.00;;;;;;5229543;28;20052;-72
2021/11/21 05:05:00;;;;;;;1.95;1.58;;;22.00;51.00;;;;;;5226285;28;20042;-72
2021/11/21 05:07:33;;;;;;;1.83;1.58;;;22.10;51.00;;;;;;5234446;28;20515;-73
2021/11/21 05:10:06;;;;;;;1.95;1.60;;;22.00;51.00;;;;;;5227146;28;20055;-73
2021/11/21 05:12:40;;;;;;;1.75;1.50;;;22.10;51.00;;;;;;5238598;28;20044;-73
2021/11/21 05:15:16;;;;;;;2.70;1.52;;;22.10;51.00;;;;;;5237230;28;20489;-73
2021/11/21 05:17:49;;;;;;;1.50;1.40;;;22.10;51.00;;;;;;5232861;28;20513;-72
2021/11/21 05:20:22;;;;;;;1.90;1.70;;;22.00;50.90;;;;;;5224435;28;20045;-72
2021/11/21 05:22:54;;;;;;;1.50;1.37;;;22.10;51.00;;;;;;5235596;28;20041;-72
2021/11/21 05:25:27;;;;;;;1.50;1.40;;;22.00;50.90;;;;;;5209814;28;20318;-73
2021/11/21 05:27:59;;;;;;;1.73;1.63;;;22.10;50.90;;;;;;5236729;28;20044;-72
2021/11/21 05:30:32;;;;;;;1.67;1.47;;;22.10;50.90;;;;;;5239176;28;20056;-73
2021/11/21 05:33:04;;;;;;;2.58;1.40;;;22.10;50.90;;;;;;5224022;28;20057;-72
2021/11/21 05:35:37;;;;;;;3.47;1.42;;;22.00;50.80;;;;;;5206386;28;20741;-72
2021/11/21 05:38:09;;;;;;;1.92;1.15;;;22.00;50.70;;;;;;5227761;28;20040;-71
2021/11/21 05:40:41;;;;;;;1.58;1.20;;;22.10;50.80;;;;;;5234098;28;20044;-72
2021/11/21 05:43:14;;;;;;;2.00;1.70;;;22.10;50.70;;;;;;5237828;28;20045;-72
2021/11/21 05:45:47;;;;;;;2.20;1.58;;;22.10;50.70;;;;;;5217397;28;20049;-72
2021/11/21 05:48:20;;;;;;;2.38;1.60;;;22.20;50.70;;;;;;5241547;28;20057;-73
2021/11/21 05:50:52;;;;;;;1.30;1.20;;;22.10;50.50;;;;;;5236432;28;20409;-72
2021/11/21 05:53:25;;;;;;;1.40;1.25;;;22.10;50.50;;;;;;5223161;28;20049;-72
2021/11/21 05:55:58;;;;;;;;;;;22.20;50.50;;;;;;5235311;28;20064;-72
2021/11/21 05:58:31;;;;;;;1.90;1.50;;;22.20;50.50;;;;;;5222682;28;19921;-72
2021/11/21 06:01:03;;;;;;;1.65;1.23;;;22.20;50.50;;;;;;5204451;28;20493;-72
2021/11/21 06:03:36;;;;;;;1.60;1.50;;;22.20;50.40;;;;;;5223651;28;20397;-73
2021/11/21 06:06:08;;;;;;;3.03;1.48;;;22.20;50.40;;;;;;5227232;28;20287;-73
2021/11/21 06:08:41;;;;;;;1.60;1.48;;;22.20;51.00;;;;;;5233966;28;20057;-73
2021/11/21 06:11:14;;;;;;;1.58;1.33;;;22.30;50.40;;;;;;5230828;28;20053;-73
2021/11/21 06:13:46;;;;;;;1.63;1.52;;;22.30;50.30;;;;;;5227923;28;20068;-73
2021/11/21 06:16:19;;;;;;;2.67;1.50;;;22.30;50.40;;;;;;5217890;28;20052;-73
2021/11/21 06:18:51;;;;;;;1.70;1.60;;;22.30;50.30;;;;;;5243531;28;20041;-73
2021/11/21 06:21:24;;;;;;;4.15;1.35;;;22.30;50.30;;;;;;5229890;28;20045;-73
2021/11/21 06:23:56;;;;;;;1.58;1.20;;;22.30;50.20;;;;;;5233260;28;20064;-73
2021/11/21 06:26:29;;;;;;;1.63;1.27;;;22.30;50.30;;;;;;5230692;28;20049;-73
2021/11/21 06:29:01;;;;;;;1.65;1.40;;;22.30;50.30;;;;;;5223512;28;20060;-73
2021/11/21 06:31:34;;;;;;;1.30;1.20;;;22.30;50.20;;;;;;5222801;28;20060;-73
2021/11/21 06:34:06;;;;;;;1.63;1.50;;;22.30;50.10;;;;;;5227426;28;20292;-73
2021/11/21 06:36:39;;;;;;;1.30;1.20;;;22.30;50.20;;;;;;5221909;28;20053;-72
2021/11/21 06:39:12;;;;;;;2.55;1.42;;;22.40;50.20;;;;;;5217654;28;20046;-71
2021/11/21 06:41:44;;;;;;;1.23;1.13;;;22.40;50.10;;;;;;5229689;28;20497;-71
2021/11/21 06:44:16;;;;;;;2.05;1.60;;;22.40;50.10;;;;;;5206483;28;20049;-71
2021/11/21 06:46:49;;;;;;;1.73;1.30;;;22.40;50.10;;;;;;5226513;28;20040;-72
2021/11/21 06:49:22;;;;;;;1.55;1.35;;;22.40;50.10;;;;;;5221869;28;20421;-72
2021/11/21 06:51:55;;;;;;;1.55;1.30;;;22.40;50.10;;;;;;5221064;28;20063;-72
2021/11/21 06:54:28;;;;;;;1.70;1.60;;;22.40;50.10;;;;;;5225313;28;20053;-72
2021/11/21 06:57:00;;;;;;;1.58;1.48;;;22.40;50.10;;;;;;5222819;28;20048;-72
2021/11/21 06:59:32;;;;;;;1.63;1.38;;;22.40;50.10;;;;;;5225975;28;20056;-72
2021/11/21 07:02:05;;;;;;;3.63;1.40;;;22.40;50.10;;;;;;5228930;28;20049;-73
2021/11/21 07:04:38;;;;;;;1.40;1.30;;;22.40;50.00;;;;;;5225848;28;20040;-72
2021/11/21 07:07:12;;;;;;;3.72;1.30;;;22.40;50.10;;;;;;5230566;28;20421;-72
2021/11/21 07:09:44;;;;;;;;;;;22.40;50.10;;;;;;5228486;28;20072;-72
2021/11/21 07:12:17;;;;;;;2.80;1.85;;;22.40;50.10;;;;;;5225783;28;20401;-72
2021/11/21 07:15:10;;;;;;;6.25;1.35;;;22.40;50.20;;;;;;5216469;28;20264;-71
2021/11/21 07:17:44;;;;;;;5.65;1.38;;;22.40;50.20;;;;;;5216452;28;20063;-72
2021/11/21 07:20:16;;;;;;;6.32;1.90;;;22.50;50.20;;;;;;5226480;28;20356;-73
2021/11/21 07:22:52;;;;;;;2.95;1.13;;;22.40;50.10;;;;;;5226639;28;20492;-72
2021/11/21 07:25:26;;;;;;;3.90;1.30;;;22.50;50.30;;;;;;5219520;28;20509;-72
2021/11/21 07:27:59;;;;;;;6.65;1.70;;;22.50;50.30;;;;;;5205771;28;20096;-72
2021/11/21 07:30:31;;;;;;;5.53;1.50;;;22.50;50.30;;;;;;5210994;28;20052;-72
2021/11/21 07:33:04;;;;;;;2.08;1.60;;;22.50;50.40;;;;;;5211183;28;20052;-71
2021/11/21 07:35:36;;;;;;;6.45;1.58;;;22.50;50.50;;;;;;5219026;28;20041;-72
2021/11/21 07:38:08;;;;;;;3.97;1.60;;;22.50;50.50;;;;;;5220773;28;20055;-72
2021/11/21 07:40:41;;;;;;;2.45;1.73;;;22.50;50.50;;;;;;5220568;28;20049;-72
2021/11/21 07:43:13;;;;;;;2.65;1.65;;;22.60;50.70;;;;;;5221810;28;20045;-73
2021/11/21 07:45:46;;;;;;;3.85;1.90;;;22.60;50.70;;;;;;5222791;28;20245;-72
2021/11/21 07:48:19;;;;;;;3.83;1.60;;;22.60;50.80;;;;;;5205718;28;20036;-72
2021/11/21 07:50:51;;;;;;;5.40;2.00;;;22.60;50.80;;;;;;5228327;28;20547;-73
2021/11/21 07:53:24;;;;;;;4.55;1.80;;;22.60;50.90;;;;;;5226680;28;20047;-72
2021/11/21 07:55:56;;;;;;;5.33;1.57;;;22.60;51.00;;;;;;5222108;28;20041;-71
2021/11/21 07:58:30;;;;;;;6.40;2.13;;;22.60;51.00;;;;;;5207375;28;20050;-72
2021/11/21 08:01:07;;;;;;;5.07;2.13;;;22.60;51.00;;;;;;5203251;28;20048;-72
2021/11/21 08:03:40;;;;;;;6.45;1.95;;;22.60;51.10;;;;;;5206430;28;20065;-72
2021/11/21 08:06:12;;;;;;;6.63;2.20;;;22.60;51.10;;;;;;5206853;28;20052;-72
2021/11/21 08:08:45;;;;;;;5.57;2.33;;;22.60;51.00;;;;;;5215625;28;20048;-72
2021/11/21 08:11:17;;;;;;;4.43;2.30;;;22.60;51.00;;;;;;5217716;28;20442;-71
2021/11/21 08:13:49;;;;;;;11.82;3.30;;;22.60;50.90;;;;;;5211993;28;20332;-72
2021/11/21 08:16:22;;;;;;;6.88;2.55;;;22.60;50.80;;;;;;5210555;28;20088;-71
2021/11/21 08:18:54;;;;;;;4.30;2.70;;;22.60;50.40;;;;;;5211130;28;20555;-72
2021/11/21 08:21:27;;;;;;;4.25;2.75;;;22.60;48.70;;;;;;5218036;28;20053;-72
2021/11/21 08:23:59;;;;;;;3.72;2.53;;;22.60;48.00;;;;;;5215640;28;20293;-71
2021/11/21 08:26:32;;;;;;;6.47;2.88;;;22.60;48.50;;;;;;5202721;28;20049;-72
2021/11/21 08:29:04;;;;;;;6.82;2.35;;;22.50;48.70;;;;;;5217460;28;20477;-72
2021/11/21 08:32:00;;;;;;;3.72;2.47;;;22.50;48.70;;;;;;5224308;28;20059;-71
2021/11/21 08:34:33;;;;;;;4.45;2.20;;;22.50;48.60;;;;;;5227967;28;20445;-72
2021/11/21 08:37:06;;;;;;;8.77;2.60;;;22.50;48.60;;;;;;5231391;28;20055;-72
2021/11/21 08:39:38;;;;;;;6.53;2.70;;;22.50;48.60;;;;;;5224672;28;20053;-71
2021/11/21 08:42:11;;;;;;;4.97;2.57;;;22.50;48.50;;;;;;5231102;28;20064;-72
2021/11/21 08:44:43;;;;;;;3.85;2.40;;;22.60;48.60;;;;;;5232079;28;20075;-73
2021/11/21 08:47:16;;;;;;;3.17;2.08;;;22.60;48.60;;;;;;5229104;28;20040;-72
2021/11/21 08:49:49;;;;;;;3.50;2.22;;;22.60;48.70;;;;;;5238455;28;20614;-72
2021/11/21 08:52:21;;;;;;;5.60;2.63;;;22.60;48.70;;;;;;5213038;28;20071;-71
2021/11/21 08:54:54;;;;;;;4.35;2.63;;;22.60;48.80;;;;;;5226927;28;20064;-72
2021/11/21 08:57:26;;;;;;;6.97;2.40;;;22.60;48.80;;;;;;5222541;28;20048;-70
2021/11/21 09:00:04;;;;;;;5.78;2.25;;;22.60;48.90;;;;;;5230066;28;20040;-69
2021/11/21 09:02:39;;;;;;;12.52;3.53;;;22.60;49.20;;;;;;5215095;28;20033;-73
2021/11/21 09:05:12;;;;;;;24.60;3.17;;;22.60;49.50;;;;;;5218379;28;20071;-71
2021/11/21 09:07:44;;;;;;;15.02;3.03;;;22.60;49.80;;;;;;5234270;28;20041;-71
2021/11/21 09:10:20;;;;;;;17.17;3.00;;;22.60;50.70;;;;;;5236769;28;20052;-71
2021/11/21 09:12:52;;;;;;;18.42;3.85;;;22.60;50.10;;;;;;5210334;28;20305;-72
2021/11/21 09:15:24;;;;;;;18.23;3.85;;;22.60;50.20;;;;;;5215611;28;20052;-72
2021/11/21 09:17:57;;;;;;;14.57;3.17;;;22.60;50.30;;;;;;5229757;28;20063;-71
2021/11/21 09:20:29;;;;;;;8.20;2.42;;;22.60;50.20;;;;;;5220332;28;20060;-72
2021/11/21 09:23:03;;;;;;;9.85;2.58;;;22.60;50.20;;;;;;5236261;28;20548;-72
2021/11/21 09:25:36;;;;;;;12.60;2.90;;;22.60;50.20;;;;;;5223517;28;20359;-72
2021/11/21 09:28:09;;;;;;;10.40;2.90;;;22.60;50.10;;;;;;5209551;28;20496;-72
2021/11/21 09:30:41;;;;;;;17.70;3.10;;;22.60;50.10;;;;;;5233699;28;20497;-73
2021/11/21 09:33:14;;;;;;;26.92;3.78;;;22.70;50.10;;;;;;5232337;28;20114;-72
2021/11/21 09:35:47;;;;;;;18.90;3.53;;;22.60;50.00;;;;;;5233749;28;20064;-72
2021/11/21 09:38:20;;;;;;;22.87;3.27;;;22.60;50.10;;;;;;5206518;28;21037;-72
2021/11/21 09:40:56;;;;;;;20.58;3.08;;;22.60;50.20;;;;;;5191486;28;20048;-73
2021/11/21 09:43:28;;;;;;;24.70;2.97;;;22.60;50.30;;;;;;5184566;28;20042;-73
2021/11/21 09:46:01;;;;;;;25.63;3.53;;;22.60;50.50;;;;;;5180920;28;20052;-73
2021/11/21 09:48:33;;;;;;;14.10;3.25;;;22.60;50.60;;;;;;5173240;28;20600;-72
2021/11/21 09:51:06;;;;;;;27.60;3.20;;;22.60;50.60;;;;;;5173219;28;20525;-72
2021/11/21 09:53:39;;;;;;;24.40;2.80;;;22.60;50.70;;;;;;5181843;28;20140;-73
2021/11/21 09:56:11;;;;;;;26.77;3.67;;;22.60;50.90;;;;;;5178940;28;20057;-73
2021/11/21 09:58:44;;;;;;;19.17;3.75;;;22.70;51.00;;;;;;5174594;28;20481;-73
2021/11/21 10:01:40;;;;;;;13.48;3.50;;;22.70;51.20;;;;;;5173788;28;20191;-75
2021/11/21 10:04:13;;;;;;;11.20;2.50;;;22.70;51.30;;;;;;5177376;28;20050;-74
2021/11/21 10:06:46;;;;;;;12.70;3.10;;;22.70;51.50;;;;;;5171667;28;20072;-74
2021/11/21 10:09:18;;;;;;;12.48;2.33;;;22.70;51.50;;;;;;5171321;28;20045;-72
2021/11/21 10:12:04;;;;;;;16.08;2.85;;;22.70;51.60;;;;;;5183921;28;20060;-73
2021/11/21 10:14:59;;;;;;;16.08;2.88;;;22.80;51.80;;;;;;5190117;28;20080;-73
2021/11/21 10:17:32;;;;;;;;;;;22.80;51.80;;;;;;5184973;28;20068;-73
2021/11/21 10:20:04;;;;;;;13.30;2.70;;;22.70;51.80;;;;;;5186081;28;20426;-72
2021/11/21 10:22:54;;;;;;;16.85;2.60;;;22.80;51.90;;;;;;5190116;28;20493;-72
2021/11/21 10:25:32;;;;;;;9.27;2.40;;;22.70;52.00;;;;;;5185560;28;20056;-72
2021/11/21 10:28:08;;;;;;;14.35;2.35;;;22.80;52.00;;;;;;5187512;28;20045;-73
2021/11/21 10:30:57;;;;;;;15.07;3.13;;;22.80;52.00;;;;;;5185446;28;20588;-73
2021/11/21 10:33:54;;;;;;;18.00;2.80;;;22.80;52.00;;;;;;5186746;28;20494;-72
2021/11/21 10:36:30;;;;;;;8.18;2.55;;;22.80;52.00;;;;;;5189772;28;20049;-72
2021/11/21 10:39:07;;;;;;;8.80;2.47;;;22.90;52.10;;;;;;5186489;28;20544;-73
2021/11/21 10:41:44;;;;;;;11.27;2.75;;;22.90;52.20;;;;;;5182029;28;20053;-73
2021/11/21 10:44:20;;;;;;;12.55;2.42;;;22.90;52.10;;;;;;5180600;28;20049;-73
2021/11/21 10:47:02;;;;;;;13.18;2.85;;;22.90;52.10;;;;;;5190608;28;20437;-73
2021/11/21 10:49:36;;;;;;;7.95;2.55;;;23.00;52.20;;;;;;5185061;28;20056;-72
2021/11/21 10:52:18;;;;;;;6.70;2.33;;;23.00;52.20;;;;;;5188791;28;20214;-73
2021/11/21 10:54:53;;;;;;;11.68;3.00;;;23.10;52.30;;;;;;5190243;28;20041;-73
2021/11/21 10:57:36;;;;;;;11.23;2.45;;;23.10;52.50;;;;;;5189694;28;20060;-72
2021/11/21 11:00:29;;;;;;;7.85;2.60;;;23.20;52.40;;;;;;5185321;28;20056;-72
2021/11/21 11:03:01;;;;;;;8.50;2.47;;;23.30;52.50;;;;;;5164162;28;20494;-72
2021/11/21 11:05:35;;;;;;;7.05;1.73;;;23.40;52.50;;;;;;5180165;28;20048;-73
2021/11/21 11:08:08;;;;;;;11.65;2.15;;;23.50;52.40;;;;;;5179888;28;20069;-73
2021/11/21 11:10:40;;;;;;;7.78;2.20;;;23.50;52.30;;;;;;5187565;28;20069;-72
2021/11/21 11:13:14;;;;;;;9.40;2.25;;;23.70;52.20;;;;;;5171467;28;20053;-72
2021/11/21 11:15:47;;;;;;;15.43;2.65;;;24.00;51.50;;;;;;5180460;28;20046;-72
2021/11/21 11:18:20;;;;;;;7.60;3.65;;;24.50;50.40;;;;;;5186815;28;20045;-72
2021/11/21 11:20:56;;;;;;;7.57;4.70;;;25.20;46.60;;;;;;5176937;28;20512;-74
2021/11/21 11:23:29;;;;;;;8.85;4.80;;;26.10;43.10;;;;;;5174289;28;20772;-73
2021/11/21 11:26:04;;;;;;;7.00;5.57;;;27.10;40.70;;;;;;5169644;28;20045;-74
2021/11/21 11:28:43;;;;;;;7.80;5.82;;;28.30;38.50;;;;;;5175408;28;20508;-74
2021/11/21 11:31:25;;;;;;;7.93;5.90;;;29.40;36.60;;;;;;5181541;28;20056;-75
2021/11/21 11:34:01;;;;;;;6.90;5.85;;;30.60;34.90;;;;;;5182971;28;20588;-74
2021/11/21 11:36:34;;;;;;;6.72;5.30;;;31.60;33.70;;;;;;5179995;28;20033;-74
2021/11/21 11:39:13;;;;;;;7.85;5.05;;;30.80;33.30;;;;;;5178064;28;20045;-75
2021/11/21 11:41:58;;;;;;;5.10;4.60;;;30.20;33.80;;;;;;5191793;28;20556;-75
2021/11/21 11:44:55;;;;;;;6.05;4.60;;;28.90;34.80;;;;;;5187949;28;20569;-75
2021/11/21 11:47:28;;;;;;;5.47;3.97;;;27.80;35.50;;;;;;5181123;28;20089;-75
2021/11/21 11:50:01;;;;;;;6.78;3.72;;;27.40;36.30;;;;;;5180919;28;20087;-74
2021/11/21 11:52:54;;;;;;;7.60;3.67;;;26.90;38.10;;;;;;5178387;28;20478;-74
2021/11/21 11:55:28;;;;;;;13.27;4.25;;;26.40;40.00;;;;;;5186445;28;20406;-74
2021/11/21 11:58:00;;;;;;;9.27;3.85;;;26.10;41.30;;;;;;5183724;28;20053;-75
2021/11/21 12:00:37;;;;;;;7.15;3.42;;;25.90;42.20;;;;;;5173189;28;21012;-75
2021/11/21 12:03:41;;;;;;;6.13;2.92;;;25.80;42.60;;;;;;5175558;28;20494;-74
2021/11/21 12:06:13;;;;;;;9.45;3.33;;;25.70;43.10;;;;;;5171835;28;20461;-74
2021/11/21 12:09:18;;;;;;;7.95;3.60;;;25.90;43.00;;;;;;5175015;28;20057;-74
2021/11/21 12:11:55;;;;;;;5.38;3.28;;;26.10;43.20;;;;;;5170490;28;20053;-74
2021/11/21 12:14:41;;;;;;;7.75;3.08;;;26.90;42.50;;;;;;5172390;28;20049;-74
2021/11/21 12:17:25;;;;;;;6.28;3.33;;;26.80;42.30;;;;;;5173916;28;20595;-74
2021/11/21 12:20:00;;;;;;;5.07;3.40;;;26.50;42.90;;;;;;5169653;28;20426;-74
2021/11/21 12:22:39;;;;;;;8.90;3.65;;;26.20;43.40;;;;;;5181831;28;20060;-74
2021/11/21 12:25:31;;;;;;;7.30;3.20;;;25.90;43.90;;;;;;5180744;28;20509;-75
2021/11/21 12:28:06;;;;;;;6.38;2.97;;;25.60;44.60;;;;;;5174942;28;20844;-75
2021/11/21 12:30:39;;;;;;;6.93;2.85;;;25.30;45.20;;;;;;5172004;28;20064;-75
2021/11/21 12:33:23;;;;;;;5.93;3.42;;;25.10;45.60;;;;;;5174679;28;21053;-74
2021/11/21 12:35:55;;;;;;;10.15;3.10;;;24.90;46.00;;;;;;5182172;28;20064;-75
2021/11/21 12:38:35;;;;;;;12.38;3.55;;;25.00;46.10;;;;;;5186102;28;20052;-75
2021/11/21 12:41:09;;;;;;;15.75;3.78;;;26.00;45.50;;;;;;5181420;28;20974;-76
2021/11/21 12:43:41;;;;;;;;;;;26.90;44.20;;;;;;5183590;28;20477;-74
2021/11/21 12:46:14;;;;;;;7.95;3.10;;;27.40;43.70;;;;;;5179162;28;20490;-74
2021/11/21 12:48:46;;;;;;;12.30;3.87;;;27.80;43.20;;;;;;5154440;28;20052;-75
2021/11/21 12:51:19;;;;;;;10.30;3.55;;;28.20;42.70;;;;;;5171060;28;20391;-74
2021/11/21 12:53:52;;;;;;;9.60;2.70;;;27.90;42.80;;;;;;5179572;28;20057;-74
2021/11/21 12:56:27;;;;;;;11.48;3.42;;;27.10;43.90;;;;;;5175787;28;20407;-74
2021/11/21 12:58:59;;;;;;;12.50;3.28;;;26.60;44.80;;;;;;5183888;28;20072;-74
2021/11/21 13:01:34;;;;;;;16.63;3.20;;;26.10;46.40;;;;;;5176791;28;20605;-74
2021/11/21 13:04:07;;;;;;;14.50;2.83;;;25.80;46.60;;;;;;5184002;28;20681;-74
2021/11/21 13:06:40;;;;;;;12.30;2.92;;;25.50;47.10;;;;;;5190106;28;20049;-74
2021/11/21 13:09:13;;;;;;;13.18;3.35;;;25.40;47.40;;;;;;5195957;28;20042;-74
2021/11/21 13:11:49;;;;;;;10.40;3.17;;;25.20;47.80;;;;;;5182573;28;20053;-74
2021/11/21 13:14:22;;;;;;;10.38;2.75;;;25.10;48.70;;;;;;5194837;28;20051;-74
2021/11/21 13:16:55;;;;;;;9.30;2.90;;;25.00;48.20;;;;;;5179213;28;20078;-74
2021/11/21 13:19:28;;;;;;;13.77;3.42;;;24.90;48.40;;;;;;5172691;28;20045;-74
2021/11/21 13:22:02;;;;;;;18.58;4.05;;;25.10;47.90;;;;;;5174357;28;20049;-74
2021/11/21 13:24:42;;;;;;;18.90;3.40;;;25.20;47.80;;;;;;5186853;28;21639;-75